Airfield :
LOGIN :

Register | Disclaimer

   EN    FR    IT 

 










Legend :    VFR   Marginal VFR   IFR   Intensive IFR   Very Intensive IFR
Visi :
Ceiling :
>= 8 km
>= 3000ft
5 to 8 km
1000 to 3000 ft
1500m to 5 km
500 to 1000 ft
800 to 1500m
200 to 500 ft
< 800m
< 200 ft
Symbols :   Thunderstorms  Fog  Heavy snow  Heavy precipitations  Wind > 20 kt
SIGMETs :     Misc.  Thunderstorms  Icing  Turbulence  Mountain Waves  Volcanic Ashes






- Airport Elevation : 288 ft
- IATA code : BZZ


EGVN - RAF Brize Norton

CURRENT METAR :
  • 252150Z 25003KT 9999 2000S MIFG SKC 03/02 Q1019 TEMPO 9999 RMK YLO2 TEMPO BLU

EXPIRED METARs :
  • 252120Z 27001KT 9999 1200S BR FEW000 03/02 Q1018 TEMPO 0700 BCFG
  • 252050Z 27002KT 9999 MIFG SKC 03/02 Q1018 TEMPO 1800 BR RMK BLU TEMPO YLO2
  • 252020Z 26002KT 9999 MIFG SKC 04/03 Q1018 NOSIG RMK BLU BLU
  • 252010Z 28002KT 9999 MIFG SKC 05/04 Q1018 NOSIG RMK BLU BLU
  • 251950Z 27002KT 9999 0900S BCFG FEW000 04/03 Q1018 BECMG 9999 MIFG
  • 251850Z 30002KT 9999 FEW044 04/03 Q1017 NOSIG RMK BLU BLU

TAF TAF EGVN
Valid from the 25 at 21:00 until the 26 at 21:00 UTC


251952Z 2521/2621 VRB02KT 9999 MIFG FEW040
BECMG 2521/2524 6000 BR
TEMPO 2521/2603 0700 BCFG SCT000
PROB40 2603/2610 3000
PROB30 2603/2610 0500 FG BKN000
BECMG 2610/2612 9999 NSW
BECMG 2619/2621 5000 BR



MET'MAP, your aeronautical weather chart ! - Copyright ORBIFLY December 2007 - Disclaimer

ORBIFLY MET'MAP TEAM :

Programming & Development : Alexandra Zaïnal
Concept & original design : Baudouin d'Aumeries
Assistance for programming : Marc-Olivier Méhu
Technical & hardware support : Manuel Goepfert

Contact : metmap@orbifly.com




SOURCES & CREDITS :

   NOAA